Wadhurst, United Kingdom
Current Conditions -  °F | °C
As of 12:50 PM on Friday 19 Dec 2014 (Local Time) from EGKB Reporting Station
Few Clouds Few Clouds  
Wind Chill: 40°   Ceiling: Unl
Heat Index: 46°   Visibility: 6mi
Dew Point: 32°   Wind: 15mph
Humidity: 57%   Direction: 280°W
Pressure: 30"   Gusts: NA
Location:  51.06°N, 0.34°E
Report Text: EGKB 191250Z 28013KT 250V320 9999 FEW030 08/M00 Q1016
Loading
Personal Weather Stations






























Interactive Weather Map New forecast layout! Learn more

10-Day Weather Forecast

Advertisements
Track Severe Weather on mobile